sensor_id;sensor_type;location;lat;lon;timestamp;P1;durP1;ratioP1;P2;durP2;ratioP2
54823;SDS011;40724;53.196;5.980;2023-08-08T00:02:14;5.88;;;1.88;;
54823;SDS011;40724;53.196;5.980;2023-08-08T00:04:40;7.07;;;2.17;;
54823;SDS011;40724;53.196;5.980;2023-08-08T00:07:06;8.25;;;2.38;;
54823;SDS011;40724;53.196;5.980;2023-08-08T00:09:32;11.00;;;2.35;;
54823;SDS011;40724;53.196;5.980;2023-08-08T00:11:57;3.78;;;2.03;;
54823;SDS011;40724;53.196;5.980;2023-08-08T00:14:23;4.78;;;1.63;;
54823;SDS011;40724;53.196;5.980;2023-08-08T00:16:50;5.82;;;2.10;;
54823;SDS011;40724;53.196;5.980;2023-08-08T00:19:15;5.45;;;2.55;;
54823;SDS011;40724;53.196;5.980;2023-08-08T00:21:41;5.05;;;2.38;;
54823;SDS011;40724;53.196;5.980;2023-08-08T00:24:07;3.33;;;1.60;;
54823;SDS011;40724;53.196;5.980;2023-08-08T00:26:33;6.70;;;2.17;;
54823;SDS011;40724;53.196;5.980;2023-08-08T00:28:58;7.07;;;2.65;;
54823;SDS011;40724;53.196;5.980;2023-08-08T00:31:24;4.50;;;1.70;;
54823;SDS011;40724;53.196;5.980;2023-08-08T00:33:50;3.45;;;1.77;;
54823;SDS011;40724;53.196;5.980;2023-08-08T00:36:16;4.85;;;2.08;;
54823;SDS011;40724;53.196;5.980;2023-08-08T00:38:41;11.15;;;2.17;;
54823;SDS011;40724;53.196;5.980;2023-08-08T00:41:07;3.20;;;1.88;;
54823;SDS011;40724;53.196;5.980;2023-08-08T00:43:33;5.57;;;2.00;;
54823;SDS011;40724;53.196;5.980;2023-08-08T00:45:58;4.75;;;2.30;;
54823;SDS011;40724;53.196;5.980;2023-08-08T00:48:24;2.97;;;1.75;;
54823;SDS011;40724;53.196;5.980;2023-08-08T00:50:52;4.25;;;2.00;;
54823;SDS011;40724;53.196;5.980;2023-08-08T00:53:18;4.55;;;2.10;;
54823;SDS011;40724;53.196;5.980;2023-08-08T00:55:45;4.10;;;2.15;;
54823;SDS011;40724;53.196;5.980;2023-08-08T00:58:11;5.38;;;1.85;;
54823;SDS011;40724;53.196;5.980;2023-08-08T01:00:38;5.18;;;2.58;;
54823;SDS011;40724;53.196;5.980;2023-08-08T01:03:04;6.95;;;1.83;;
54823;SDS011;40724;53.196;5.980;2023-08-08T01:05:34;5.47;;;2.28;;
54823;SDS011;40724;53.196;5.980;2023-08-08T01:08:07;4.88;;;2.45;;
54823;SDS011;40724;53.196;5.980;2023-08-08T01:10:34;4.68;;;1.85;;
54823;SDS011;40724;53.196;5.980;2023-08-08T01:13:14;8.10;;;2.30;;
54823;SDS011;40724;53.196;5.980;2023-08-08T01:15:44;6.63;;;1.90;;
54823;SDS011;40724;53.196;5.980;2023-08-08T01:18:11;5.07;;;2.13;;
54823;SDS011;40724;53.196;5.980;2023-08-08T01:20:39;7.78;;;2.67;;
54823;SDS011;40724;53.196;5.980;2023-08-08T01:26:06;5.78;;;2.45;;
54823;SDS011;40724;53.196;5.980;2023-08-08T01:28:33;7.07;;;2.95;;
54823;SDS011;40724;53.196;5.980;2023-08-08T01:30:59;6.20;;;2.45;;
54823;SDS011;40724;53.196;5.980;2023-08-08T01:33:25;4.40;;;1.98;;
54823;SDS011;40724;53.196;5.980;2023-08-08T01:35:54;5.15;;;2.05;;
54823;SDS011;40724;53.196;5.980;2023-08-08T01:38:33;6.80;;;2.28;;
54823;SDS011;40724;53.196;5.980;2023-08-08T01:41:04;6.15;;;2.40;;
54823;SDS011;40724;53.196;5.980;2023-08-08T01:43:31;3.60;;;1.90;;
54823;SDS011;40724;53.196;5.980;2023-08-08T01:45:58;10.20;;;2.22;;
54823;SDS011;40724;53.196;5.980;2023-08-08T01:48:25;4.07;;;2.08;;
54823;SDS011;40724;53.196;5.980;2023-08-08T01:50:52;3.70;;;2.42;;
54823;SDS011;40724;53.196;5.980;2023-08-08T01:53:18;3.88;;;2.13;;
54823;SDS011;40724;53.196;5.980;2023-08-08T01:55:44;5.68;;;1.98;;
54823;SDS011;40724;53.196;5.980;2023-08-08T01:58:10;3.83;;;2.08;;
54823;SDS011;40724;53.196;5.980;2023-08-08T02:00:35;8.40;;;2.85;;
54823;SDS011;40724;53.196;5.980;2023-08-08T02:03:02;5.88;;;2.65;;
54823;SDS011;40724;53.196;5.980;2023-08-08T02:05:28;6.38;;;2.47;;
54823;SDS011;40724;53.196;5.980;2023-08-08T02:07:54;4.13;;;2.35;;
54823;SDS011;40724;53.196;5.980;2023-08-08T02:10:19;5.20;;;2.25;;
54823;SDS011;40724;53.196;5.980;2023-08-08T02:12:45;3.53;;;1.80;;
54823;SDS011;40724;53.196;5.980;2023-08-08T02:15:11;3.25;;;2.05;;
54823;SDS011;40724;53.196;5.980;2023-08-08T02:17:37;8.52;;;2.75;;
54823;SDS011;40724;53.196;5.980;2023-08-08T02:20:04;10.55;;;2.60;;
54823;SDS011;40724;53.196;5.980;2023-08-08T02:22:31;6.72;;;2.63;;
54823;SDS011;40724;53.196;5.980;2023-08-08T02:24:57;4.28;;;1.65;;
54823;SDS011;40724;53.196;5.980;2023-08-08T02:27:23;9.23;;;2.22;;
54823;SDS011;40724;53.196;5.980;2023-08-08T02:29:49;12.63;;;2.55;;
54823;SDS011;40724;53.196;5.980;2023-08-08T02:32:14;4.18;;;1.90;;
54823;SDS011;40724;53.196;5.980;2023-08-08T02:34:40;5.05;;;1.85;;
54823;SDS011;40724;53.196;5.980;2023-08-08T02:37:07;5.60;;;1.75;;
54823;SDS011;40724;53.196;5.980;2023-08-08T02:39:33;4.18;;;2.10;;
54823;SDS011;40724;53.196;5.980;2023-08-08T02:41:59;4.15;;;2.05;;
54823;SDS011;40724;53.196;5.980;2023-08-08T02:44:24;6.30;;;2.10;;
54823;SDS011;40724;53.196;5.980;2023-08-08T02:46:50;5.03;;;2.58;;
54823;SDS011;40724;53.196;5.980;2023-08-08T02:49:16;3.10;;;1.95;;
54823;SDS011;40724;53.196;5.980;2023-08-08T02:51:42;5.50;;;1.67;;
54823;SDS011;40724;53.196;5.980;2023-08-08T02:54:07;3.70;;;1.80;;
54823;SDS011;40724;53.196;5.980;2023-08-08T02:56:33;3.05;;;1.60;;
54823;SDS011;40724;53.196;5.980;2023-08-08T02:58:59;2.70;;;1.85;;
54823;SDS011;40724;53.196;5.980;2023-08-08T03:01:25;4.60;;;1.90;;
54823;SDS011;40724;53.196;5.980;2023-08-08T03:03:50;3.90;;;2.00;;
54823;SDS011;40724;53.196;5.980;2023-08-08T03:06:16;3.55;;;1.80;;
54823;SDS011;40724;53.196;5.980;2023-08-08T03:08:42;4.93;;;1.83;;
54823;SDS011;40724;53.196;5.980;2023-08-08T03:11:08;6.10;;;2.55;;
54823;SDS011;40724;53.196;5.980;2023-08-08T03:13:33;6.65;;;2.50;;
54823;SDS011;40724;53.196;5.980;2023-08-08T03:15:59;4.30;;;1.40;;
54823;SDS011;40724;53.196;5.980;2023-08-08T03:18:25;3.22;;;1.90;;
54823;SDS011;40724;53.196;5.980;2023-08-08T03:20:51;5.45;;;1.80;;
54823;SDS011;40724;53.196;5.980;2023-08-08T03:23:17;3.70;;;2.03;;
54823;SDS011;40724;53.196;5.980;2023-08-08T03:25:43;3.47;;;1.85;;
54823;SDS011;40724;53.196;5.980;2023-08-08T03:28:09;3.22;;;1.85;;
54823;SDS011;40724;53.196;5.980;2023-08-08T03:30:38;3.95;;;2.08;;
54823;SDS011;40724;53.196;5.980;2023-08-08T03:33:04;6.95;;;2.70;;
54823;SDS011;40724;53.196;5.980;2023-08-08T03:35:30;4.45;;;2.45;;
54823;SDS011;40724;53.196;5.980;2023-08-08T03:37:56;7.15;;;2.17;;
54823;SDS011;40724;53.196;5.980;2023-08-08T03:40:21;2.97;;;1.95;;
54823;SDS011;40724;53.196;5.980;2023-08-08T03:42:47;14.45;;;2.50;;
54823;SDS011;40724;53.196;5.980;2023-08-08T03:45:13;7.75;;;2.35;;
54823;SDS011;40724;53.196;5.980;2023-08-08T03:47:39;7.03;;;2.08;;
54823;SDS011;40724;53.196;5.980;2023-08-08T03:50:06;3.40;;;2.03;;
54823;SDS011;40724;53.196;5.980;2023-08-08T03:52:33;3.28;;;1.52;;
54823;SDS011;40724;53.196;5.980;2023-08-08T03:55:01;5.35;;;2.50;;
54823;SDS011;40724;53.196;5.980;2023-08-08T03:57:27;8.13;;;2.38;;
54823;SDS011;40724;53.196;5.980;2023-08-08T03:59:52;6.10;;;1.70;;
54823;SDS011;40724;53.196;5.980;2023-08-08T04:02:18;4.05;;;1.58;;
54823;SDS011;40724;53.196;5.980;2023-08-08T04:04:44;5.40;;;2.00;;
54823;SDS011;40724;53.196;5.980;2023-08-08T04:07:10;3.40;;;1.42;;
54823;SDS011;40724;53.196;5.980;2023-08-08T04:09:35;4.22;;;2.30;;
54823;SDS011;40724;53.196;5.980;2023-08-08T04:12:01;5.20;;;1.92;;
54823;SDS011;40724;53.196;5.980;2023-08-08T04:14:27;4.13;;;1.60;;
54823;SDS011;40724;53.196;5.980;2023-08-08T04:16:53;6.00;;;1.67;;
54823;SDS011;40724;53.196;5.980;2023-08-08T04:19:19;3.67;;;1.60;;
54823;SDS011;40724;53.196;5.980;2023-08-08T04:21:44;4.47;;;2.35;;
54823;SDS011;40724;53.196;5.980;2023-08-08T04:24:10;4.32;;;1.92;;
54823;SDS011;40724;53.196;5.980;2023-08-08T04:26:37;4.38;;;1.50;;
54823;SDS011;40724;53.196;5.980;2023-08-08T04:29:03;4.10;;;2.17;;
54823;SDS011;40724;53.196;5.980;2023-08-08T04:31:30;6.68;;;1.60;;
54823;SDS011;40724;53.196;5.980;2023-08-08T04:33:56;4.50;;;1.50;;
54823;SDS011;40724;53.196;5.980;2023-08-08T04:36:28;3.92;;;1.45;;
54823;SDS011;40724;53.196;5.980;2023-08-08T04:38:54;3.95;;;1.67;;
54823;SDS011;40724;53.196;5.980;2023-08-08T04:41:20;6.03;;;1.38;;
54823;SDS011;40724;53.196;5.980;2023-08-08T04:43:45;3.05;;;1.73;;
54823;SDS011;40724;53.196;5.980;2023-08-08T04:46:11;7.63;;;2.28;;
54823;SDS011;40724;53.196;5.980;2023-08-08T04:48:37;2.90;;;1.60;;
54823;SDS011;40724;53.196;5.980;2023-08-08T04:51:04;4.32;;;1.80;;
54823;SDS011;40724;53.196;5.980;2023-08-08T04:53:30;7.38;;;1.83;;
54823;SDS011;40724;53.196;5.980;2023-08-08T04:55:56;3.33;;;2.00;;
54823;SDS011;40724;53.196;5.980;2023-08-08T04:58:22;4.00;;;1.88;;
54823;SDS011;40724;53.196;5.980;2023-08-08T05:00:48;4.75;;;1.58;;
54823;SDS011;40724;53.196;5.980;2023-08-08T05:03:16;6.63;;;2.08;;
54823;SDS011;40724;53.196;5.980;2023-08-08T05:05:42;5.55;;;2.05;;
54823;SDS011;40724;53.196;5.980;2023-08-08T05:08:13;5.20;;;1.75;;
54823;SDS011;40724;53.196;5.980;2023-08-08T05:10:38;3.20;;;1.42;;
54823;SDS011;40724;53.196;5.980;2023-08-08T05:13:04;4.60;;;1.58;;
54823;SDS011;40724;53.196;5.980;2023-08-08T05:15:30;5.22;;;2.03;;
54823;SDS011;40724;53.196;5.980;2023-08-08T05:17:56;6.95;;;2.45;;
54823;SDS011;40724;53.196;5.980;2023-08-08T05:20:22;3.65;;;1.52;;
54823;SDS011;40724;53.196;5.980;2023-08-08T05:22:48;4.28;;;1.55;;
54823;SDS011;40724;53.196;5.980;2023-08-08T05:25:14;7.03;;;1.60;;
54823;SDS011;40724;53.196;5.980;2023-08-08T05:27:40;4.72;;;1.60;;
54823;SDS011;40724;53.196;5.980;2023-08-08T05:30:05;3.97;;;2.05;;
54823;SDS011;40724;53.196;5.980;2023-08-08T05:32:32;4.07;;;1.52;;
54823;SDS011;40724;53.196;5.980;2023-08-08T05:34:58;5.57;;;2.42;;
54823;SDS011;40724;53.196;5.980;2023-08-08T05:37:25;4.95;;;2.78;;
54823;SDS011;40724;53.196;5.980;2023-08-08T05:39:51;7.82;;;2.65;;
54823;SDS011;40724;53.196;5.980;2023-08-08T05:42:18;5.22;;;1.77;;
54823;SDS011;40724;53.196;5.980;2023-08-08T05:44:44;7.75;;;1.90;;
54823;SDS011;40724;53.196;5.980;2023-08-08T05:47:10;5.95;;;1.77;;
54823;SDS011;40724;53.196;5.980;2023-08-08T05:49:37;3.28;;;1.88;;
54823;SDS011;40724;53.196;5.980;2023-08-08T05:52:04;6.70;;;1.80;;
54823;SDS011;40724;53.196;5.980;2023-08-08T05:54:30;9.10;;;1.90;;
54823;SDS011;40724;53.196;5.980;2023-08-08T05:56:56;6.68;;;1.95;;
54823;SDS011;40724;53.196;5.980;2023-08-08T05:59:22;12.75;;;2.22;;
54823;SDS011;40724;53.196;5.980;2023-08-08T06:01:48;5.70;;;1.67;;
54823;SDS011;40724;53.196;5.980;2023-08-08T06:04:15;6.03;;;1.52;;
54823;SDS011;40724;53.196;5.980;2023-08-08T06:06:41;2.95;;;1.63;;
54823;SDS011;40724;53.196;5.980;2023-08-08T06:09:07;6.03;;;1.95;;
54823;SDS011;40724;53.196;5.980;2023-08-08T06:11:34;6.38;;;2.00;;
54823;SDS011;40724;53.196;5.980;2023-08-08T06:14:00;5.00;;;1.95;;
54823;SDS011;40724;53.196;5.980;2023-08-08T06:16:26;4.72;;;1.55;;
54823;SDS011;40724;53.196;5.980;2023-08-08T06:18:52;4.70;;;1.65;;
54823;SDS011;40724;53.196;5.980;2023-08-08T06:21:18;3.60;;;1.67;;
54823;SDS011;40724;53.196;5.980;2023-08-08T06:23:45;6.25;;;1.85;;
54823;SDS011;40724;53.196;5.980;2023-08-08T06:26:12;9.05;;;2.03;;
54823;SDS011;40724;53.196;5.980;2023-08-08T06:28:39;5.93;;;1.83;;
54823;SDS011;40724;53.196;5.980;2023-08-08T06:31:05;5.22;;;1.83;;
54823;SDS011;40724;53.196;5.980;2023-08-08T06:33:31;7.78;;;2.15;;
54823;SDS011;40724;53.196;5.980;2023-08-08T06:35:57;8.38;;;1.92;;
54823;SDS011;40724;53.196;5.980;2023-08-08T06:38:23;5.30;;;1.83;;
54823;SDS011;40724;53.196;5.980;2023-08-08T06:40:49;4.43;;;1.55;;
54823;SDS011;40724;53.196;5.980;2023-08-08T06:43:16;6.63;;;1.60;;
54823;SDS011;40724;53.196;5.980;2023-08-08T06:45:42;4.90;;;1.67;;
54823;SDS011;40724;53.196;5.980;2023-08-08T06:48:08;5.40;;;1.48;;
54823;SDS011;40724;53.196;5.980;2023-08-08T06:50:35;5.03;;;1.90;;
54823;SDS011;40724;53.196;5.980;2023-08-08T06:53:02;4.70;;;1.60;;
54823;SDS011;40724;53.196;5.980;2023-08-08T06:55:29;6.13;;;2.40;;
54823;SDS011;40724;53.196;5.980;2023-08-08T06:57:55;4.25;;;1.50;;
54823;SDS011;40724;53.196;5.980;2023-08-08T07:00:21;3.70;;;1.45;;
54823;SDS011;40724;53.196;5.980;2023-08-08T07:02:47;8.00;;;2.15;;
54823;SDS011;40724;53.196;5.980;2023-08-08T07:05:13;10.85;;;1.90;;
54823;SDS011;40724;53.196;5.980;2023-08-08T07:07:39;5.50;;;2.13;;
54823;SDS011;40724;53.196;5.980;2023-08-08T07:10:05;5.50;;;1.63;;
54823;SDS011;40724;53.196;5.980;2023-08-08T07:12:32;6.80;;;1.80;;
54823;SDS011;40724;53.196;5.980;2023-08-08T07:14:58;5.93;;;2.00;;
54823;SDS011;40724;53.196;5.980;2023-08-08T07:17:24;12.23;;;2.45;;
54823;SDS011;40724;53.196;5.980;2023-08-08T07:19:50;6.95;;;2.33;;
54823;SDS011;40724;53.196;5.980;2023-08-08T07:22:16;4.70;;;2.28;;
54823;SDS011;40724;53.196;5.980;2023-08-08T07:24:42;4.78;;;1.70;;
54823;SDS011;40724;53.196;5.980;2023-08-08T07:27:09;5.28;;;2.50;;
54823;SDS011;40724;53.196;5.980;2023-08-08T07:29:35;7.10;;;2.08;;
54823;SDS011;40724;53.196;5.980;2023-08-08T07:32:02;5.05;;;2.08;;
54823;SDS011;40724;53.196;5.980;2023-08-08T07:34:29;6.00;;;2.42;;
54823;SDS011;40724;53.196;5.980;2023-08-08T07:36:57;5.88;;;2.20;;
54823;SDS011;40724;53.196;5.980;2023-08-08T07:39:23;6.50;;;1.90;;
54823;SDS011;40724;53.196;5.980;2023-08-08T07:41:49;4.30;;;1.50;;
54823;SDS011;40724;53.196;5.980;2023-08-08T07:44:15;7.80;;;1.83;;
54823;SDS011;40724;53.196;5.980;2023-08-08T07:46:41;5.38;;;1.98;;
54823;SDS011;40724;53.196;5.980;2023-08-08T07:49:08;11.80;;;3.72;;
54823;SDS011;40724;53.196;5.980;2023-08-08T07:51:34;7.95;;;2.00;;
54823;SDS011;40724;53.196;5.980;2023-08-08T07:54:01;5.25;;;1.60;;
54823;SDS011;40724;53.196;5.980;2023-08-08T07:56:27;6.85;;;1.48;;
54823;SDS011;40724;53.196;5.980;2023-08-08T07:58:53;3.00;;;1.50;;
54823;SDS011;40724;53.196;5.980;2023-08-08T08:01:19;5.13;;;1.55;;
54823;SDS011;40724;53.196;5.980;2023-08-08T08:03:46;7.32;;;2.17;;
54823;SDS011;40724;53.196;5.980;2023-08-08T08:06:12;5.70;;;1.80;;
54823;SDS011;40724;53.196;5.980;2023-08-08T08:08:38;5.40;;;1.88;;
54823;SDS011;40724;53.196;5.980;2023-08-08T08:11:04;3.15;;;1.65;;
54823;SDS011;40724;53.196;5.980;2023-08-08T08:13:30;5.97;;;2.20;;
54823;SDS011;40724;53.196;5.980;2023-08-08T08:15:56;5.45;;;1.75;;
54823;SDS011;40724;53.196;5.980;2023-08-08T08:18:23;6.25;;;2.17;;
54823;SDS011;40724;53.196;5.980;2023-08-08T08:20:49;6.07;;;2.70;;
54823;SDS011;40724;53.196;5.980;2023-08-08T08:23:15;4.40;;;1.75;;
54823;SDS011;40724;53.196;5.980;2023-08-08T08:25:41;2.83;;;1.10;;
54823;SDS011;40724;53.196;5.980;2023-08-08T08:28:07;5.95;;;2.25;;
54823;SDS011;40724;53.196;5.980;2023-08-08T08:30:34;2.70;;;1.40;;
54823;SDS011;40724;53.196;5.980;2023-08-08T08:33:01;6.03;;;1.83;;
54823;SDS011;40724;53.196;5.980;2023-08-08T08:35:29;4.38;;;1.60;;
54823;SDS011;40724;53.196;5.980;2023-08-08T08:37:55;5.28;;;1.80;;
54823;SDS011;40724;53.196;5.980;2023-08-08T08:40:22;5.15;;;1.92;;
54823;SDS011;40724;53.196;5.980;2023-08-08T08:42:48;5.72;;;1.83;;
54823;SDS011;40724;53.196;5.980;2023-08-08T08:45:15;9.02;;;2.22;;
54823;SDS011;40724;53.196;5.980;2023-08-08T08:47:42;5.40;;;1.88;;
54823;SDS011;40724;53.196;5.980;2023-08-08T08:50:14;3.40;;;1.52;;
54823;SDS011;40724;53.196;5.980;2023-08-08T08:52:42;3.95;;;1.30;;
54823;SDS011;40724;53.196;5.980;2023-08-08T08:55:08;4.32;;;1.60;;
54823;SDS011;40724;53.196;5.980;2023-08-08T08:57:35;5.65;;;1.63;;
54823;SDS011;40724;53.196;5.980;2023-08-08T09:00:02;3.88;;;1.42;;
54823;SDS011;40724;53.196;5.980;2023-08-08T09:02:28;5.15;;;1.52;;
54823;SDS011;40724;53.196;5.980;2023-08-08T09:04:55;6.00;;;1.40;;
54823;SDS011;40724;53.196;5.980;2023-08-08T09:07:22;6.20;;;2.13;;
54823;SDS011;40724;53.196;5.980;2023-08-08T09:09:51;3.78;;;1.60;;
54823;SDS011;40724;53.196;5.980;2023-08-08T09:12:18;6.50;;;1.65;;
54823;SDS011;40724;53.196;5.980;2023-08-08T09:14:44;4.53;;;2.08;;
54823;SDS011;40724;53.196;5.980;2023-08-08T09:17:11;4.65;;;1.45;;
54823;SDS011;40724;53.196;5.980;2023-08-08T09:19:38;2.95;;;1.27;;
54823;SDS011;40724;53.196;5.980;2023-08-08T09:22:04;3.78;;;1.27;;
54823;SDS011;40724;53.196;5.980;2023-08-08T09:24:30;3.65;;;1.42;;
54823;SDS011;40724;53.196;5.980;2023-08-08T09:26:56;6.30;;;1.70;;
54823;SDS011;40724;53.196;5.980;2023-08-08T09:29:22;4.03;;;1.75;;
54823;SDS011;40724;53.196;5.980;2023-08-08T09:31:49;4.90;;;1.52;;
54823;SDS011;40724;53.196;5.980;2023-08-08T09:34:16;4.85;;;1.60;;
54823;SDS011;40724;53.196;5.980;2023-08-08T09:36:42;4.05;;;1.60;;
54823;SDS011;40724;53.196;5.980;2023-08-08T09:39:08;6.20;;;2.00;;
54823;SDS011;40724;53.196;5.980;2023-08-08T09:41:34;5.13;;;2.13;;
54823;SDS011;40724;53.196;5.980;2023-08-08T09:44:00;5.82;;;2.17;;
54823;SDS011;40724;53.196;5.980;2023-08-08T09:46:28;4.82;;;1.48;;
54823;SDS011;40724;53.196;5.980;2023-08-08T09:48:55;3.65;;;1.80;;
54823;SDS011;40724;53.196;5.980;2023-08-08T09:51:21;8.73;;;1.98;;
54823;SDS011;40724;53.196;5.980;2023-08-08T09:53:48;5.40;;;1.92;;
54823;SDS011;40724;53.196;5.980;2023-08-08T09:56:14;4.40;;;2.10;;
54823;SDS011;40724;53.196;5.980;2023-08-08T09:58:41;3.53;;;1.73;;
54823;SDS011;40724;53.196;5.980;2023-08-08T10:01:08;5.03;;;2.08;;
54823;SDS011;40724;53.196;5.980;2023-08-08T10:03:34;6.93;;;1.80;;
54823;SDS011;40724;53.196;5.980;2023-08-08T10:06:02;7.93;;;2.13;;
54823;SDS011;40724;53.196;5.980;2023-08-08T10:08:28;4.55;;;1.98;;
54823;SDS011;40724;53.196;5.980;2023-08-08T10:10:57;7.43;;;1.92;;
54823;SDS011;40724;53.196;5.980;2023-08-08T10:13:24;3.78;;;1.60;;
54823;SDS011;40724;53.196;5.980;2023-08-08T10:15:50;6.40;;;2.25;;
54823;SDS011;40724;53.196;5.980;2023-08-08T10:18:17;5.03;;;1.80;;
54823;SDS011;40724;53.196;5.980;2023-08-08T10:20:44;5.35;;;2.22;;
54823;SDS011;40724;53.196;5.980;2023-08-08T10:23:16;6.47;;;1.55;;
54823;SDS011;40724;53.196;5.980;2023-08-08T10:25:50;6.15;;;2.15;;
54823;SDS011;40724;53.196;5.980;2023-08-08T10:28:18;4.68;;;1.85;;
54823;SDS011;40724;53.196;5.980;2023-08-08T10:30:45;6.00;;;1.65;;
54823;SDS011;40724;53.196;5.980;2023-08-08T10:33:15;4.95;;;1.30;;
54823;SDS011;40724;53.196;5.980;2023-08-08T10:35:49;3.20;;;1.58;;
54823;SDS011;40724;53.196;5.980;2023-08-08T10:38:16;4.68;;;1.67;;
54823;SDS011;40724;53.196;5.980;2023-08-08T10:40:42;4.28;;;1.80;;
54823;SDS011;40724;53.196;5.980;2023-08-08T10:43:09;2.83;;;1.30;;
54823;SDS011;40724;53.196;5.980;2023-08-08T10:45:40;5.47;;;1.63;;
54823;SDS011;40724;53.196;5.980;2023-08-08T10:48:08;5.95;;;1.75;;
54823;SDS011;40724;53.196;5.980;2023-08-08T10:50:38;3.25;;;1.40;;
54823;SDS011;40724;53.196;5.980;2023-08-08T10:53:07;4.53;;;1.73;;
54823;SDS011;40724;53.196;5.980;2023-08-08T10:55:35;4.57;;;1.58;;
54823;SDS011;40724;53.196;5.980;2023-08-08T10:58:09;4.97;;;1.85;;
54823;SDS011;40724;53.196;5.980;2023-08-08T11:00:36;4.30;;;1.52;;
54823;SDS011;40724;53.196;5.980;2023-08-08T11:03:05;5.82;;;1.67;;
54823;SDS011;40724;53.196;5.980;2023-08-08T11:05:35;5.10;;;2.70;;
54823;SDS011;40724;53.196;5.980;2023-08-08T11:08:01;3.90;;;1.75;;
54823;SDS011;40724;53.196;5.980;2023-08-08T11:10:28;3.08;;;1.02;;
54823;SDS011;40724;53.196;5.980;2023-08-08T11:12:58;3.47;;;2.03;;
54823;SDS011;40724;53.196;5.980;2023-08-08T11:15:25;3.20;;;1.20;;
54823;SDS011;40724;53.196;5.980;2023-08-08T11:17:52;8.73;;;2.33;;
54823;SDS011;40724;53.196;5.980;2023-08-08T11:20:18;2.40;;;1.40;;
54823;SDS011;40724;53.196;5.980;2023-08-08T11:22:44;5.07;;;1.67;;
54823;SDS011;40724;53.196;5.980;2023-08-08T11:25:14;5.63;;;1.45;;
54823;SDS011;40724;53.196;5.980;2023-08-08T11:27:40;2.20;;;1.02;;
54823;SDS011;40724;53.196;5.980;2023-08-08T11:30:20;3.97;;;1.20;;
54823;SDS011;40724;53.196;5.980;2023-08-08T11:32:47;4.85;;;1.80;;
54823;SDS011;40724;53.196;5.980;2023-08-08T11:35:17;5.93;;;1.95;;
54823;SDS011;40724;53.196;5.980;2023-08-08T11:37:46;5.03;;;1.48;;
54823;SDS011;40724;53.196;5.980;2023-08-08T11:40:13;6.78;;;1.88;;
54823;SDS011;40724;53.196;5.980;2023-08-08T11:42:40;4.95;;;1.73;;
54823;SDS011;40724;53.196;5.980;2023-08-08T11:45:10;4.82;;;1.38;;
54823;SDS011;40724;53.196;5.980;2023-08-08T11:47:38;3.10;;;1.33;;
54823;SDS011;40724;53.196;5.980;2023-08-08T11:50:05;3.25;;;1.60;;
54823;SDS011;40724;53.196;5.980;2023-08-08T11:52:32;4.03;;;1.90;;
54823;SDS011;40724;53.196;5.980;2023-08-08T11:54:58;3.05;;;1.83;;
54823;SDS011;40724;53.196;5.980;2023-08-08T11:57:28;5.07;;;2.00;;
54823;SDS011;40724;53.196;5.980;2023-08-08T11:59:54;3.78;;;1.48;;
54823;SDS011;40724;53.196;5.980;2023-08-08T12:02:20;3.45;;;2.03;;
54823;SDS011;40724;53.196;5.980;2023-08-08T12:04:46;8.90;;;2.28;;
54823;SDS011;40724;53.196;5.980;2023-08-08T12:07:12;2.95;;;1.70;;
54823;SDS011;40724;53.196;5.980;2023-08-08T12:09:39;4.05;;;1.63;;
54823;SDS011;40724;53.196;5.980;2023-08-08T12:12:05;5.43;;;1.52;;
54823;SDS011;40724;53.196;5.980;2023-08-08T12:14:38;5.53;;;2.05;;
54823;SDS011;40724;53.196;5.980;2023-08-08T12:17:05;3.35;;;2.20;;
54823;SDS011;40724;53.196;5.980;2023-08-08T12:19:31;5.78;;;1.77;;
54823;SDS011;40724;53.196;5.980;2023-08-08T12:21:57;9.98;;;2.65;;
54823;SDS011;40724;53.196;5.980;2023-08-08T12:24:23;6.72;;;1.73;;
54823;SDS011;40724;53.196;5.980;2023-08-08T12:26:49;3.22;;;1.55;;
54823;SDS011;40724;53.196;5.980;2023-08-08T12:29:15;3.38;;;1.67;;
54823;SDS011;40724;53.196;5.980;2023-08-08T12:31:42;6.85;;;2.63;;
54823;SDS011;40724;53.196;5.980;2023-08-08T12:34:08;5.63;;;1.60;;
54823;SDS011;40724;53.196;5.980;2023-08-08T12:36:35;6.18;;;2.65;;
54823;SDS011;40724;53.196;5.980;2023-08-08T12:39:01;5.30;;;2.00;;
54823;SDS011;40724;53.196;5.980;2023-08-08T12:41:27;5.03;;;2.67;;
54823;SDS011;40724;53.196;5.980;2023-08-08T12:43:54;4.65;;;1.70;;
54823;SDS011;40724;53.196;5.980;2023-08-08T12:46:20;6.97;;;1.38;;
54823;SDS011;40724;53.196;5.980;2023-08-08T12:48:47;5.22;;;1.60;;
54823;SDS011;40724;53.196;5.980;2023-08-08T12:51:13;2.67;;;1.40;;
54823;SDS011;40724;53.196;5.980;2023-08-08T12:53:41;4.35;;;1.45;;
54823;SDS011;40724;53.196;5.980;2023-08-08T12:56:07;4.55;;;1.63;;
54823;SDS011;40724;53.196;5.980;2023-08-08T12:58:33;4.45;;;1.80;;
54823;SDS011;40724;53.196;5.980;2023-08-08T13:00:59;3.88;;;1.52;;
54823;SDS011;40724;53.196;5.980;2023-08-08T13:03:25;5.40;;;1.67;;
54823;SDS011;40724;53.196;5.980;2023-08-08T13:05:51;6.15;;;2.15;;
54823;SDS011;40724;53.196;5.980;2023-08-08T13:08:18;3.88;;;1.13;;
54823;SDS011;40724;53.196;5.980;2023-08-08T13:10:44;5.28;;;2.17;;
54823;SDS011;40724;53.196;5.980;2023-08-08T13:13:11;5.57;;;1.67;;
54823;SDS011;40724;53.196;5.980;2023-08-08T13:15:37;8.73;;;1.95;;
54823;SDS011;40724;53.196;5.980;2023-08-08T13:18:03;6.30;;;1.60;;
54823;SDS011;40724;53.196;5.980;2023-08-08T13:20:30;4.70;;;1.55;;
54823;SDS011;40724;53.196;5.980;2023-08-08T13:22:56;5.25;;;1.90;;
54823;SDS011;40724;53.196;5.980;2023-08-08T13:25:32;4.32;;;1.45;;
54823;SDS011;40724;53.196;5.980;2023-08-08T13:28:00;4.97;;;1.75;;
54823;SDS011;40724;53.196;5.980;2023-08-08T13:30:26;6.18;;;1.58;;
54823;SDS011;40724;53.196;5.980;2023-08-08T13:32:52;5.28;;;1.50;;
54823;SDS011;40724;53.196;5.980;2023-08-08T13:35:20;5.70;;;1.77;;
54823;SDS011;40724;53.196;5.980;2023-08-08T13:37:46;6.40;;;1.90;;
54823;SDS011;40724;53.196;5.980;2023-08-08T13:40:17;7.40;;;2.00;;
54823;SDS011;40724;53.196;5.980;2023-08-08T13:42:43;6.07;;;1.60;;
54823;SDS011;40724;53.196;5.980;2023-08-08T13:45:13;6.45;;;1.85;;
54823;SDS011;40724;53.196;5.980;2023-08-08T13:47:40;6.78;;;1.40;;
54823;SDS011;40724;53.196;5.980;2023-08-08T13:50:06;3.45;;;1.73;;
54823;SDS011;40724;53.196;5.980;2023-08-08T13:52:33;5.43;;;1.77;;
54823;SDS011;40724;53.196;5.980;2023-08-08T13:54:59;3.53;;;1.02;;
54823;SDS011;40724;53.196;5.980;2023-08-08T13:57:25;5.63;;;1.88;;
54823;SDS011;40724;53.196;5.980;2023-08-08T13:59:51;4.57;;;1.50;;
54823;SDS011;40724;53.196;5.980;2023-08-08T14:02:18;2.20;;;1.20;;
54823;SDS011;40724;53.196;5.980;2023-08-08T14:04:44;4.50;;;1.50;;
54823;SDS011;40724;53.196;5.980;2023-08-08T14:07:11;5.82;;;1.60;;
54823;SDS011;40724;53.196;5.980;2023-08-08T14:09:37;3.33;;;1.70;;
54823;SDS011;40724;53.196;5.980;2023-08-08T14:12:03;6.25;;;2.00;;
54823;SDS011;40724;53.196;5.980;2023-08-08T14:14:30;3.10;;;1.40;;
54823;SDS011;40724;53.196;5.980;2023-08-08T14:16:56;8.55;;;1.95;;
54823;SDS011;40724;53.196;5.980;2023-08-08T14:19:23;4.47;;;1.67;;
54823;SDS011;40724;53.196;5.980;2023-08-08T14:21:49;2.10;;;1.20;;
54823;SDS011;40724;53.196;5.980;2023-08-08T14:24:15;3.78;;;1.95;;
54823;SDS011;40724;53.196;5.980;2023-08-08T14:26:41;8.63;;;2.38;;
54823;SDS011;40724;53.196;5.980;2023-08-08T14:29:07;3.53;;;1.40;;
54823;SDS011;40724;53.196;5.980;2023-08-08T14:31:33;6.68;;;2.25;;
54823;SDS011;40724;53.196;5.980;2023-08-08T14:34:00;4.88;;;1.02;;
54823;SDS011;40724;53.196;5.980;2023-08-08T14:36:26;5.00;;;1.65;;
54823;SDS011;40724;53.196;5.980;2023-08-08T14:38:52;3.92;;;1.25;;
54823;SDS011;40724;53.196;5.980;2023-08-08T14:41:18;5.80;;;1.45;;
54823;SDS011;40724;53.196;5.980;2023-08-08T14:43:44;10.88;;;8.13;;
54823;SDS011;40724;53.196;5.980;2023-08-08T14:46:10;19.48;;;12.05;;
54823;SDS011;40724;53.196;5.980;2023-08-08T14:48:37;19.35;;;13.55;;